Time;durP1;ratioP1;P1;durP2;ratioP2;P2;SDS_P1;SDS_P2;PMS_P1;PMS_P2;Temp;Humidity;BMP_temperature;BMP_pressure;BME280_temperature;BME280_humidity;BME280_pressure;Samples;Min_cycle;Max_cycle;Signal;HPM_P1;HPM_P2
2021/05/24 00:00:17;;;;;;;;;;;;;;;20.00;49.49;101339.06;2105531;28;3969;-30
2021/05/24 00:01:18;;;;;;;;;;;;;;;20.01;49.61;101343.59;2104841;28;4021;-27
2021/05/24 00:02:19;;;;;;;;;;;;;;;20.04;49.76;101342.06;2105555;28;4004;-28
2021/05/24 00:03:20;;;;;;;;;;;;;;;20.04;49.50;101339.22;2104680;28;4029;-28
2021/05/24 00:04:22;;;;;;;;;;;;;;;20.03;49.55;101337.56;2104943;28;3986;-27
2021/05/24 00:05:26;;;;;;;;;;;;;;;20.05;49.62;101334.38;2105936;28;3995;-27
2021/05/24 00:06:27;;;;;;;;;;;;;;;20.05;49.79;101340.91;2103148;28;3975;-28
2021/05/24 00:07:29;;;;;;;;;;;;;;;20.06;49.54;101341.72;2103439;28;5397;-29
2021/05/24 00:08:30;;;;;;;;;;;;;;;20.06;49.53;101339.72;2104871;28;3875;-29
2021/05/24 00:09:31;;;;;;;;;;;;;;;20.07;49.62;101340.56;2104832;28;4116;-27
2021/05/24 00:10:33;;;;;;;;;;;;;;;20.08;49.63;101336.56;2105077;28;4029;-28
2021/05/24 00:11:34;;;;;;;;;;;;;;;20.08;49.55;101339.41;2104790;28;3980;-28
2021/05/24 00:12:35;;;;;;;;;;;;;;;20.08;49.61;101337.38;2105163;28;3923;-31
2021/05/24 00:13:44;;;;;;;;;;;;;;;20.08;49.75;101337.38;2104876;28;4057;-31
2021/05/24 00:14:47;;;;;;;;;;;;;;;20.10;49.66;101331.38;2102717;28;4019;-28
2021/05/24 00:15:48;;;;;;;;;;;;;;;20.09;49.70;101329.69;2099550;28;4001;-29
2021/05/24 00:16:50;;;;;;;;;;;;;;;20.11;49.73;101333.03;2104354;28;3963;-27
2021/05/24 00:17:51;;;;;;;;;;;;;;;20.11;49.75;101327.38;2102097;28;3902;-29
2021/05/24 00:18:53;;;;;;;;;;;;;;;20.11;49.77;101327.38;2099988;28;4051;-28
2021/05/24 00:19:54;;;;;;;;;;;;;;;20.11;49.71;101325.34;2104517;28;4052;-27
2021/05/24 00:20:55;;;;;;;;;;;;;;;20.12;49.81;101324.16;2105432;28;4039;-30
2021/05/24 00:21:57;;;;;;;;;;;;;;;20.11;49.80;101316.00;2104589;28;3868;-28
2021/05/24 00:22:58;;;;;;;;;;;;;;;20.12;49.75;101320.50;2104884;28;3870;-28
2021/05/24 00:23:59;;;;;;;;;;;;;;;20.13;49.71;101328.69;2099794;28;4097;-28
2021/05/24 00:25:01;;;;;;;;;;;;;;;20.13;49.74;101319.34;2100868;28;4274;-27
2021/05/24 00:26:02;;;;;;;;;;;;;;;20.13;49.88;101314.50;2104886;28;4115;-27
2021/05/24 00:27:03;;;;;;;;;;;;;;;20.13;49.74;101311.66;2104791;28;3893;-29
2021/05/24 00:28:06;;;;;;;;;;;;;;;20.14;49.83;101310.47;2104920;28;4942;-28
2021/05/24 00:29:14;;;;;;;;;;;;;;;20.15;49.90;101311.31;2104151;28;4018;-29
2021/05/24 00:30:15;;;;;;;;;;;;;;;20.15;49.88;101308.47;2104246;28;4208;-29
2021/05/24 00:31:17;;;;;;;;;;;;;;;20.16;49.91;101313.81;2104454;28;4009;-29
2021/05/24 00:32:18;;;;;;;;;;;;;;;20.16;49.85;101313.81;2104551;28;4036;-28
2021/05/24 00:33:19;;;;;;;;;;;;;;;20.17;50.01;101314.66;2097773;28;3867;-31
2021/05/24 00:34:20;;;;;;;;;;;;;;;20.17;49.92;101303.28;2103675;28;3869;-31
2021/05/24 00:35:21;;;;;;;;;;;;;;;20.17;50.01;101304.13;2105147;28;3844;-28
2021/05/24 00:36:23;;;;;;;;;;;;;;;20.17;49.91;101304.13;2104661;28;4014;-28
2021/05/24 00:37:24;;;;;;;;;;;;;;;20.18;50.03;101300.13;2104667;28;4174;-28
2021/05/24 00:38:25;;;;;;;;;;;;;;;20.18;50.02;101296.44;2104817;28;4034;-27
2021/05/24 00:39:26;;;;;;;;;;;;;;;20.18;49.99;101297.28;2104503;28;3967;-29
2021/05/24 00:40:28;;;;;;;;;;;;;;;20.18;49.97;101293.59;2105002;28;3782;-28
2021/05/24 00:41:29;;;;;;;;;;;;;;;20.18;49.97;101290.75;2103914;28;4654;-28
2021/05/24 00:42:30;;;;;;;;;;;;;;;20.19;50.06;101289.59;2105820;28;4039;-33
2021/05/24 00:43:31;;;;;;;;;;;;;;;20.19;50.08;101293.25;2104586;28;4068;-27
2021/05/24 00:44:32;;;;;;;;;;;;;;;20.20;50.11;101294.09;2104880;28;3919;-28
2021/05/24 00:45:34;;;;;;;;;;;;;;;20.20;50.15;101291.25;2105442;28;4048;-31
2021/05/24 00:46:35;;;;;;;;;;;;;;;20.20;50.04;101291.25;2104440;28;3916;-30
2021/05/24 00:47:36;;;;;;;;;;;;;;;20.20;50.05;101289.25;2104060;28;4098;-28
2021/05/24 00:48:37;;;;;;;;;;;;;;;20.21;50.17;101290.09;2098737;28;4145;-30
2021/05/24 00:49:39;;;;;;;;;;;;;;;20.20;50.06;101285.56;2104692;28;4030;-30
2021/05/24 00:50:40;;;;;;;;;;;;;;;20.20;50.15;101283.56;2102613;28;4040;-30
2021/05/24 00:51:41;;;;;;;;;;;;;;;20.21;50.11;101282.41;2098526;28;4055;-28
2021/05/24 00:52:42;;;;;;;;;;;;;;;20.21;50.11;101285.25;2104145;28;3937;-30
2021/05/24 00:53:43;;;;;;;;;;;;;;;20.22;50.15;101283.22;2103535;28;4055;-31
2021/05/24 00:54:45;;;;;;;;;;;;;;;20.23;50.17;101287.72;2099171;28;3905;-30
2021/05/24 00:55:46;;;;;;;;;;;;;;;20.22;50.08;101281.22;2104147;28;4129;-28
2021/05/24 00:56:47;;;;;;;;;;;;;;;20.23;50.10;101285.75;2104699;28;4026;-27
2021/05/24 00:57:53;;;;;;;;;;;;;;;20.23;50.23;101284.91;2105418;28;4039;-27
2021/05/24 00:58:55;;;;;;;;;;;;;;;20.23;50.10;101277.22;2104494;28;4031;-29
2021/05/24 00:59:56;;;;;;;;;;;;;;;20.24;50.29;101280.91;2103839;28;3865;-32
2021/05/24 01:00:57;;;;;;;;;;;;;;;20.25;50.16;101280.53;2103677;28;3883;-27
2021/05/24 01:01:58;;;;;;;;;;;;;;;20.25;50.25;101263.50;2105421;28;3995;-27
2021/05/24 01:03:00;;;;;;;;;;;;;;;20.24;50.17;101269.53;2105355;28;4088;-28
2021/05/24 01:04:01;;;;;;;;;;;;;;;20.25;50.17;101263.50;2104189;28;3842;-29
2021/05/24 01:05:02;;;;;;;;;;;;;;;20.26;50.27;101275.69;2105757;28;4055;-30
2021/05/24 01:06:04;;;;;;;;;;;;;;;20.25;50.15;101277.69;2099626;28;3929;-32
2021/05/24 01:07:05;;;;;;;;;;;;;;;20.26;50.31;101267.16;2101429;28;3834;-28
2021/05/24 01:08:07;;;;;;;;;;;;;;;20.27;50.25;101274.53;2104170;28;4071;-27
2021/05/24 01:09:08;;;;;;;;;;;;;;;20.28;50.22;101269.69;2104249;28;4036;-28
2021/05/24 01:10:09;;;;;;;;;;;;;;;20.26;50.38;101278.53;2104796;28;3911;-30
2021/05/24 01:11:11;;;;;;;;;;;;;;;20.27;50.38;101274.53;2103832;28;4035;-30
2021/05/24 01:12:12;;;;;;;;;;;;;;;20.27;50.30;101271.69;2104291;28;4042;-30
2021/05/24 01:13:15;;;;;;;;;;;;;;;20.28;50.46;101273.34;2104789;28;4023;-29
2021/05/24 01:14:16;;;;;;;;;;;;;;;20.29;50.51;101277.88;2103533;28;3873;-29
2021/05/24 01:15:18;;;;;;;;;;;;;;;20.29;50.51;101277.03;2104770;28;4022;-30
2021/05/24 01:16:19;;;;;;;;;;;;;;;20.29;50.38;101277.88;2103521;28;3971;-29
2021/05/24 01:17:21;;;;;;;;;;;;;;;20.29;50.39;101269.38;2103885;28;4029;-28
2021/05/24 01:18:22;;;;;;;;;;;;;;;20.29;50.55;101283.56;2101622;28;3995;-31
2021/05/24 01:19:23;;;;;;;;;;;;;;;20.29;50.44;101277.03;2104556;28;4173;-29
2021/05/24 01:20:28;;;;;;;;;;;;;;;20.29;50.37;101269.38;2104301;28;3891;-28
2021/05/24 01:21:29;;;;;;;;;;;;;;;20.30;50.52;101267.34;2103638;28;4878;-28
2021/05/24 01:22:33;;;;;;;;;;;;;;;20.29;50.63;101269.38;2104898;28;4270;-29
2021/05/24 01:23:34;;;;;;;;;;;;;;;20.29;50.47;101272.19;2104014;28;4032;-28
2021/05/24 01:24:35;;;;;;;;;;;;;;;20.30;50.70;101270.19;2097413;28;3931;-30
2021/05/24 01:25:37;;;;;;;;;;;;;;;20.30;50.68;101268.19;2104380;28;4052;-30
2021/05/24 01:26:38;;;;;;;;;;;;;;;20.31;50.66;101271.84;2101413;28;4090;-29
2021/05/24 01:27:39;;;;;;;;;;;;;;;20.31;50.70;101275.53;2103177;28;4074;-29
2021/05/24 01:28:40;;;;;;;;;;;;;;;20.32;50.72;101279.19;2102495;28;3911;-28
2021/05/24 01:29:41;;;;;;;;;;;;;;;20.31;50.78;101277.53;2101466;28;4031;-31
2021/05/24 01:30:43;;;;;;;;;;;;;;;20.31;50.70;101281.19;2101774;28;4127;-28
2021/05/24 01:31:44;;;;;;;;;;;;;;;20.32;50.71;101271.53;2101230;28;3919;-28
2021/05/24 01:32:45;;;;;;;;;;;;;;;20.33;50.85;101281.72;2103798;28;4030;-29
2021/05/24 01:33:46;;;;;;;;;;;;;;;20.32;50.76;101274.38;2104739;28;4043;-28
2021/05/24 01:34:47;;;;;;;;;;;;;;;20.32;50.94;101263.00;2104161;28;4056;-28
2021/05/24 01:35:49;;;;;;;;;;;;;;;20.32;50.91;101274.38;2105249;28;4087;-28
2021/05/24 01:36:50;;;;;;;;;;;;;;;20.33;50.77;101272.34;2103661;28;4067;-27
2021/05/24 01:37:51;;;;;;;;;;;;;;;20.33;50.98;101272.34;2103928;28;4129;-28
2021/05/24 01:38:52;;;;;;;;;;;;;;;20.33;50.93;101273.19;2101967;28;3855;-28
2021/05/24 01:39:54;;;;;;;;;;;;;;;20.33;50.97;101272.34;2099062;28;4073;-29
2021/05/24 01:40:55;;;;;;;;;;;;;;;20.35;51.16;101278.53;2104624;28;4032;-28
2021/05/24 01:41:56;;;;;;;;;;;;;;;20.34;51.10;101274.84;2104917;28;4076;-28
2021/05/24 01:42:57;;;;;;;;;;;;;;;20.34;51.03;101274.00;2103719;28;4040;-28
2021/05/24 01:43:59;;;;;;;;;;;;;;;20.35;51.21;101270.03;2104324;28;3877;-28
2021/05/24 01:45:00;;;;;;;;;;;;;;;20.35;51.22;101275.69;2099688;28;4042;-28
2021/05/24 01:46:01;;;;;;;;;;;;;;;20.35;51.27;101270.03;2100974;28;4054;-28
2021/05/24 01:47:02;;;;;;;;;;;;;;;20.34;51.22;101266.31;2104441;28;4050;-29
2021/05/24 01:48:04;;;;;;;;;;;;;;;20.35;51.26;101270.03;2104152;28;4026;-30
2021/05/24 01:49:05;;;;;;;;;;;;;;;20.35;51.45;101270.84;2103771;28;4058;-30
2021/05/24 01:50:06;;;;;;;;;;;;;;;20.36;51.25;101274.53;2104313;28;3878;-28
2021/05/24 01:51:08;;;;;;;;;;;;;;;20.35;51.38;101275.69;2098667;28;3863;-29
2021/05/24 01:52:09;;;;;;;;;;;;;;;20.36;51.48;101278.19;2101600;28;4066;-32
2021/05/24 01:53:10;;;;;;;;;;;;;;;20.36;51.36;101281.03;2104160;28;4094;-29
2021/05/24 01:54:12;;;;;;;;;;;;;;;20.36;51.67;101280.19;2098977;28;4033;-28
2021/05/24 01:55:13;;;;;;;;;;;;;;;20.31;51.22;101278.34;2101913;28;3872;-31
2021/05/24 01:56:14;;;;;;;;;;;;;;;20.32;51.46;101280.06;2095472;28;3868;-27
2021/05/24 01:57:15;;;;;;;;;;;;;;;20.32;51.43;101271.53;2094239;28;4057;-29
2021/05/24 01:58:16;;;;;;;;;;;;;;;20.34;51.54;101272.00;2103688;28;4020;-29
2021/05/24 01:59:18;;;;;;;;;;;;;;;20.34;51.37;101263.47;2105697;28;3787;-30
2021/05/24 02:00:21;;;;;;;;;;;;;;;20.35;51.41;101267.19;2104192;28;3851;-27
2021/05/24 02:01:22;;;;;;;;;;;;;;;20.34;51.45;101269.16;2103761;28;4169;-28
2021/05/24 02:02:23;;;;;;;;;;;;;;;20.35;51.56;101262.31;2104084;28;4068;-29
2021/05/24 02:03:24;;;;;;;;;;;;;;;20.36;51.32;101263.97;2104353;28;4021;-26
2021/05/24 02:04:25;;;;;;;;;;;;;;;20.36;51.46;101266.81;2105013;28;4002;-30
2021/05/24 02:05:27;;;;;;;;;;;;;;;20.36;51.34;101266.81;2103601;28;3793;-32
2021/05/24 02:06:28;;;;;;;;;;;;;;;20.37;51.19;101265.66;2103733;28;3955;-28
2021/05/24 02:07:31;;;;;;;;;;;;;;;20.37;51.36;101265.66;2104183;28;4893;-28
2021/05/24 02:08:33;;;;;;;;;;;;;;;20.37;51.32;101262.81;2104398;28;4065;-28
2021/05/24 02:09:35;;;;;;;;;;;;;;;20.37;51.27;101268.50;2096156;28;4103;-29
2021/05/24 02:10:36;;;;;;;;;;;;;;;20.37;51.36;101268.50;2104764;28;4034;-29
2021/05/24 02:11:37;;;;;;;;;;;;;;;20.38;51.41;101269.34;2103376;28;4036;-30
2021/05/24 02:12:38;;;;;;;;;;;;;;;20.38;51.38;101270.16;2103160;28;3852;-32
2021/05/24 02:13:40;;;;;;;;;;;;;;;20.38;51.25;101264.47;2104934;28;4029;-30
2021/05/24 02:14:41;;;;;;;;;;;;;;;20.38;51.28;101267.31;2104224;28;4048;-30
2021/05/24 02:15:42;;;;;;;;;;;;;;;20.38;51.16;101273.00;2104620;28;3778;-30
2021/05/24 02:16:43;;;;;;;;;;;;;;;20.38;51.22;101275.03;2104067;28;4818;-32
2021/05/24 02:17:44;;;;;;;;;;;;;;;20.38;51.24;101264.47;2101223;28;4035;-29
2021/05/24 02:18:46;;;;;;;;;;;;;;;20.39;51.18;101266.13;2098636;28;3928;-28
2021/05/24 02:19:49;;;;;;;;;;;;;;;20.39;51.31;101265.31;2105265;28;3946;-28
2021/05/24 02:20:50;;;;;;;;;;;;;;;20.40;51.32;101266.97;2106364;28;3997;-30
2021/05/24 02:21:51;;;;;;;;;;;;;;;20.38;51.14;101258.81;2104909;28;3899;-30
2021/05/24 02:22:52;;;;;;;;;;;;;;;20.39;51.27;101259.63;2105822;28;3890;-28
2021/05/24 02:23:54;;;;;;;;;;;;;;;20.40;51.17;101252.75;2105663;28;4045;-28
2021/05/24 02:24:55;;;;;;;;;;;;;;;20.39;51.25;101254.78;2104646;28;4030;-28
2021/05/24 02:25:56;;;;;;;;;;;;;;;20.39;51.21;101251.94;2105361;28;4011;-29
2021/05/24 02:26:57;;;;;;;;;;;;;;;20.39;51.23;101251.94;2100702;28;3958;-28
2021/05/24 02:27:59;;;;;;;;;;;;;;;20.40;51.08;101253.63;2101312;28;4110;-29
2021/05/24 02:29:00;;;;;;;;;;;;;;;20.40;51.27;101256.47;2105740;28;4032;-29
2021/05/24 02:30:01;;;;;;;;;;;;;;;20.40;51.11;101255.59;2106233;28;3994;-28
2021/05/24 02:31:02;;;;;;;;;;;;;;;20.39;51.28;101257.63;2105601;28;4091;-30
2021/05/24 02:32:03;;;;;;;;;;;;;;;20.40;51.14;101255.59;2105456;28;3845;-28
2021/05/24 02:33:05;;;;;;;;;;;;;;;20.40;51.18;101256.47;2101202;28;3986;-29
2021/05/24 02:34:07;;;;;;;;;;;;;;;20.41;51.27;101255.28;2102762;28;3913;-28
2021/05/24 02:35:08;;;;;;;;;;;;;;;20.41;51.40;101252.44;2105629;28;4017;-30
2021/05/24 02:36:09;;;;;;;;;;;;;;;20.41;51.22;101243.91;2099371;28;4013;-28
2021/05/24 02:37:10;;;;;;;;;;;;;;;20.41;51.17;101246.75;2103405;28;3891;-30
2021/05/24 02:38:12;;;;;;;;;;;;;;;20.41;51.23;101249.59;2106340;28;3836;-28
2021/05/24 02:39:13;;;;;;;;;;;;;;;20.41;51.10;101246.75;2089955;28;3869;-28
2021/05/24 02:40:14;;;;;;;;;;;;;;;20.41;51.12;101249.59;2094343;28;4054;-29
2021/05/24 02:41:15;;;;;;;;;;;;;;;20.42;51.23;101256.09;2105606;28;4020;-31
2021/05/24 02:42:17;;;;;;;;;;;;;;;20.42;51.15;101258.94;2105564;28;4034;-28
2021/05/24 02:43:18;;;;;;;;;;;;;;;20.42;51.11;101253.25;2104803;28;4035;-28
2021/05/24 02:44:19;;;;;;;;;;;;;;;20.43;51.19;101257.78;2105639;28;3819;-30
2021/05/24 02:45:20;;;;;;;;;;;;;;;20.42;51.23;101259.78;2098992;28;4033;-29
2021/05/24 02:46:21;;;;;;;;;;;;;;;20.43;51.32;101252.94;2104148;28;4002;-28
2021/05/24 02:47:23;;;;;;;;;;;;;;;20.42;51.27;101259.78;2105416;28;3973;-29
2021/05/24 02:48:24;;;;;;;;;;;;;;;20.43;51.25;101258.63;2097430;28;4049;-27
2021/05/24 02:49:25;;;;;;;;;;;;;;;20.43;51.35;101257.78;2105601;28;3989;-28
2021/05/24 02:50:26;;;;;;;;;;;;;;;20.42;51.17;101262.63;2105956;28;3997;-30
2021/05/24 02:51:28;;;;;;;;;;;;;;;20.42;51.23;101254.09;2097057;28;3834;-29
2021/05/24 02:52:29;;;;;;;;;;;;;;;20.43;51.28;101254.94;2095550;28;3989;-28
2021/05/24 02:53:30;;;;;;;;;;;;;;;20.43;51.42;101247.25;2105631;28;3865;-27
2021/05/24 02:54:31;;;;;;;;;;;;;;;20.42;51.57;101242.72;2097806;28;4120;-28
2021/05/24 02:55:32;;;;;;;;;;;;;;;20.44;51.57;101250.94;2105043;28;4055;-29
2021/05/24 02:56:34;;;;;;;;;;;;;;;20.43;51.69;101250.09;2104204;28;3859;-31
2021/05/24 02:57:35;;;;;;;;;;;;;;;20.44;51.82;101254.59;2097479;28;4047;-27
2021/05/24 02:58:36;;;;;;;;;;;;;;;20.45;51.82;101244.91;2105692;28;4132;-30
2021/05/24 02:59:37;;;;;;;;;;;;;;;20.46;52.05;101245.75;2104148;28;3878;-28
2021/05/24 03:00:39;;;;;;;;;;;;;;;20.46;52.01;101242.91;2097808;28;4055;-28
2021/05/24 03:01:40;;;;;;;;;;;;;;;20.46;52.08;101249.41;2105554;28;3903;-30
2021/05/24 03:02:46;;;;;;;;;;;;;;;20.47;52.09;101247.41;2103578;28;3948;-29
2021/05/24 03:03:53;;;;;;;;;;;;;;;20.47;52.13;101244.56;2100314;28;4098;-31
2021/05/24 03:04:55;;;;;;;;;;;;;;;20.47;52.21;101238.88;2103771;28;4051;-32
2021/05/24 03:05:56;;;;;;;;;;;;;;;20.46;52.21;101238.03;2101768;28;4070;-30
2021/05/24 03:06:57;;;;;;;;;;;;;;;20.47;52.16;101245.38;2101399;28;4031;-28
2021/05/24 03:07:58;;;;;;;;;;;;;;;20.47;52.34;101242.53;2104541;28;4043;-32
2021/05/24 03:09:00;;;;;;;;;;;;;;;20.47;52.14;101244.56;2101408;28;4019;-30
2021/05/24 03:10:01;;;;;;;;;;;;;;;20.47;52.30;101239.69;2100673;28;3944;-29
2021/05/24 03:11:02;;;;;;;;;;;;;;;20.47;52.27;101245.38;2105724;28;4031;-34
2021/05/24 03:12:03;;;;;;;;;;;;;;;20.48;52.09;101243.38;2101361;28;3888;-31
2021/05/24 03:13:05;;;;;;;;;;;;;;;20.48;52.15;101240.53;2100827;28;4087;-28
2021/05/24 03:14:06;;;;;;;;;;;;;;;20.49;52.08;101252.75;2106010;28;4110;-29
2021/05/24 03:15:07;;;;;;;;;;;;;;;20.47;52.05;101242.53;2100852;28;4195;-31
2021/05/24 03:16:08;;;;;;;;;;;;;;;20.50;52.22;101251.56;2101794;28;4058;-30
2021/05/24 03:17:09;;;;;;;;;;;;;;;20.49;52.15;101241.38;2105060;28;4002;-32
2021/05/24 03:18:11;;;;;;;;;;;;;;;20.50;52.12;101240.22;2099936;28;4046;-28
2021/05/24 03:19:12;;;;;;;;;;;;;;;20.48;52.22;101246.22;2102924;28;3984;-30
2021/05/24 03:20:13;;;;;;;;;;;;;;;20.50;52.04;101245.88;2105375;28;3998;-29
2021/05/24 03:21:14;;;;;;;;;;;;;;;20.50;52.15;101251.56;2105572;28;4079;-28
2021/05/24 03:22:15;;;;;;;;;;;;;;;20.49;52.08;101242.22;2105489;28;3931;-30
2021/05/24 03:23:17;;;;;;;;;;;;;;;20.49;52.18;101247.91;2105386;28;4035;-28
2021/05/24 03:24:18;;;;;;;;;;;;;;;20.49;52.07;101238.56;2105432;28;3999;-28
2021/05/24 03:25:19;;;;;;;;;;;;;;;20.49;52.17;101242.22;2095330;28;4034;-28
2021/05/24 03:26:20;;;;;;;;;;;;;;;20.49;51.98;101253.59;2095578;28;3877;-28
2021/05/24 03:27:21;;;;;;;;;;;;;;;20.50;52.17;101246.72;2095302;28;4033;-29
2021/05/24 03:28:23;;;;;;;;;;;;;;;20.50;51.99;101248.72;2094545;28;4066;-28
2021/05/24 03:29:24;;;;;;;;;;;;;;;20.50;52.07;101252.41;2105623;28;4080;-28
2021/05/24 03:30:25;;;;;;;;;;;;;;;20.50;52.12;101257.25;2096139;28;3906;-31
2021/05/24 03:31:26;;;;;;;;;;;;;;;20.49;52.13;101259.28;2104059;28;3779;-30
2021/05/24 03:32:28;;;;;;;;;;;;;;;20.50;52.02;101257.25;2104498;28;3788;-30
2021/05/24 03:33:29;;;;;;;;;;;;;;;20.51;52.17;101253.22;2104688;28;3816;-34
2021/05/24 03:34:30;;;;;;;;;;;;;;;20.51;52.13;101250.38;2105194;28;4021;-31
2021/05/24 03:35:31;;;;;;;;;;;;;;;20.51;52.19;101258.91;2105471;28;4148;-30
2021/05/24 03:36:32;;;;;;;;;;;;;;;20.50;52.05;101246.72;2104119;28;4098;-30
2021/05/24 03:37:34;;;;;;;;;;;;;;;20.51;52.12;101254.09;2104963;28;4023;-31
2021/05/24 03:38:36;;;;;;;;;;;;;;;20.51;52.25;101254.09;2104598;28;3967;-33
2021/05/24 03:39:37;;;;;;;;;;;;;;;20.52;52.19;101257.75;2105408;28;4024;-36
2021/05/24 03:40:38;;;;;;;;;;;;;;;20.52;52.30;101254.91;2105807;28;3905;-33
2021/05/24 03:41:39;;;;;;;;;;;;;;;20.51;52.15;101251.25;2104443;28;4105;-30
2021/05/24 03:42:41;;;;;;;;;;;;;;;20.52;52.19;101252.06;2106435;28;3874;-31
2021/05/24 03:43:44;;;;;;;;;;;;;;;20.52;52.30;101246.41;2104763;28;4199;-30
2021/05/24 03:44:45;;;;;;;;;;;;;;;20.51;52.15;101245.56;2102631;28;4007;-29
2021/05/24 03:45:47;;;;;;;;;;;;;;;20.52;52.34;101249.25;2105550;28;3997;-30
2021/05/24 03:46:48;;;;;;;;;;;;;;;20.51;52.23;101248.41;2104621;28;4040;-29
2021/05/24 03:47:49;;;;;;;;;;;;;;;20.52;52.28;101249.25;2104917;28;4341;-29
2021/05/24 03:48:50;;;;;;;;;;;;;;;20.52;52.27;101252.06;2105209;28;4253;-30
2021/05/24 03:49:51;;;;;;;;;;;;;;;20.53;52.38;101250.91;2104690;28;4044;-28
2021/05/24 03:50:53;;;;;;;;;;;;;;;20.53;52.31;101253.72;2104730;28;3893;-32
2021/05/24 03:51:54;;;;;;;;;;;;;;;20.52;52.43;101250.06;2106252;28;3993;-31
2021/05/24 03:52:55;;;;;;;;;;;;;;;20.52;52.37;101252.91;2105385;28;4098;-27
2021/05/24 03:53:56;;;;;;;;;;;;;;;20.53;52.53;101245.22;2104730;28;4051;-28
2021/05/24 03:54:58;;;;;;;;;;;;;;;20.52;52.40;101250.06;2105567;28;3866;-29
2021/05/24 03:55:59;;;;;;;;;;;;;;;20.53;52.61;101246.06;2106069;28;4054;-28
2021/05/24 03:57:00;;;;;;;;;;;;;;;20.53;52.72;101251.75;2105445;28;4106;-30
2021/05/24 03:58:01;;;;;;;;;;;;;;;20.53;52.70;101254.59;2105266;28;4352;-28
2021/05/24 03:59:03;;;;;;;;;;;;;;;20.54;52.79;101247.75;2104405;28;4047;-27
2021/05/24 04:00:04;;;;;;;;;;;;;;;20.54;52.84;101244.91;2099867;28;4000;-28
2021/05/24 04:01:05;;;;;;;;;;;;;;;20.55;52.90;101254.28;2098923;28;3869;-29
2021/05/24 04:02:07;;;;;;;;;;;;;;;20.55;53.09;101252.25;2104445;28;4047;-29
2021/05/24 04:03:08;;;;;;;;;;;;;;;20.55;53.01;101245.75;2103383;28;3868;-29
2021/05/24 04:04:10;;;;;;;;;;;;;;;20.54;52.83;101250.59;2103804;28;3867;-28
2021/05/24 04:05:24;;;;;;;;;;;;;;;20.55;52.97;101252.25;2098200;28;4095;-28
2021/05/24 04:06:27;;;;;;;;;;;;;;;20.55;53.04;101246.56;2097803;28;3949;-31
2021/05/24 04:07:28;;;;;;;;;;;;;;;20.55;53.08;101249.41;2105654;28;3881;-30
2021/05/24 04:08:36;;;;;;;;;;;;;;;20.55;52.88;101245.75;2103568;28;4430;-30
2021/05/24 04:09:38;;;;;;;;;;;;;;;20.54;53.05;101247.75;2103045;28;4087;-27
2021/05/24 04:10:47;;;;;;;;;;;;;;;20.54;52.91;101247.75;2105636;28;4039;-28
2021/05/24 04:11:48;;;;;;;;;;;;;;;20.55;52.99;101248.59;2104447;28;3859;-28
2021/05/24 04:12:50;;;;;;;;;;;;;;;20.56;53.20;101253.09;2105173;28;3862;-28
2021/05/24 04:13:54;;;;;;;;;;;;;;;20.56;53.10;101242.53;2105457;28;4046;-29
2021/05/24 04:14:56;;;;;;;;;;;;;;;20.56;53.18;101242.53;2104569;28;3853;-29
2021/05/24 04:16:01;;;;;;;;;;;;;;;20.56;53.12;101247.41;2104005;28;4132;-28
2021/05/24 04:17:03;;;;;;;;;;;;;;;20.55;53.12;101249.41;2105552;28;4075;-28
2021/05/24 04:18:11;;;;;;;;;;;;;;;20.56;53.05;101247.41;2104352;28;3989;-28
2021/05/24 04:19:13;;;;;;;;;;;;;;;20.56;53.10;101250.25;2104024;28;3899;-28
2021/05/24 04:20:14;;;;;;;;;;;;;;;20.56;53.12;101247.41;2105223;28;4051;-28
2021/05/24 04:21:15;;;;;;;;;;;;;;;20.56;53.03;101247.41;2103372;28;4077;-29
2021/05/24 04:22:16;;;;;;;;;;;;;;;20.57;53.11;101249.09;2104232;28;3861;-30
2021/05/24 04:23:18;;;;;;;;;;;;;;;20.57;53.08;101254.78;2104240;28;4016;-30
2021/05/24 04:24:19;;;;;;;;;;;;;;;20.56;53.09;101253.09;2105768;28;4024;-29
2021/05/24 04:25:20;;;;;;;;;;;;;;;20.57;53.06;101257.63;2104324;28;4072;-27
2021/05/24 04:26:21;;;;;;;;;;;;;;;20.56;52.93;101253.09;2105095;28;3982;-29
2021/05/24 04:27:23;;;;;;;;;;;;;;;20.56;52.98;101258.78;2104338;28;4002;-30
2021/05/24 04:28:24;;;;;;;;;;;;;;;20.56;52.94;101250.25;2104481;28;3857;-29
2021/05/24 04:29:30;;;;;;;;;;;;;;;20.57;53.02;101260.47;2104663;28;4748;-28
2021/05/24 04:30:31;;;;;;;;;;;;;;;20.57;52.90;101254.78;2105214;28;3910;-28
2021/05/24 04:31:32;;;;;;;;;;;;;;;20.57;53.03;101249.09;2105294;28;4046;-29
2021/05/24 04:32:33;;;;;;;;;;;;;;;20.56;52.92;101253.91;2105190;28;4084;-28
2021/05/24 04:33:34;;;;;;;;;;;;;;;;;;2105641;28;4144;-31
2021/05/24 04:34:36;;;;;;;;;;;;;;;20.59;53.04;101258.09;2104266;28;4068;-28
2021/05/24 04:35:37;;;;;;;;;;;;;;;;;;2104681;28;3890;-30
2021/05/24 04:36:38;;;;;;;;;;;;;;;20.57;52.96;101254.78;2103872;28;4028;-30
2021/05/24 04:37:39;;;;;;;;;;;;;;;20.58;53.04;101253.59;2104575;28;4272;-30
2021/05/24 04:38:40;;;;;;;;;;;;;;;;;;2104464;28;3873;-29
2021/05/24 04:39:43;;;;;;;;;;;;;;;20.57;52.96;101251.94;2105238;28;4053;-27
2021/05/24 04:40:46;;;;;;;;;;;;;;;20.57;52.92;101254.78;2105426;28;4060;-27
2021/05/24 04:41:47;;;;;;;;;;;;;;;20.58;52.75;101251.56;2104205;28;3962;-27
2021/05/24 04:42:49;;;;;;;;;;;;;;;20.56;52.81;101253.91;2104726;28;4101;-28
2021/05/24 04:43:55;;;;;;;;;;;;;;;20.58;52.87;101257.25;2105274;28;4051;-27
2021/05/24 04:44:56;;;;;;;;;;;;;;;20.56;52.95;101248.22;2102923;28;3868;-31
2021/05/24 04:45:58;;;;;;;;;;;;;;;20.58;52.90;101240.19;2102678;28;4407;-27
2021/05/24 04:46:59;;;;;;;;;;;;;;;20.57;52.80;101243.41;2104965;28;4057;-29
2021/05/24 04:48:00;;;;;;;;;;;;;;;20.58;52.84;101253.59;2104852;28;3878;-29
2021/05/24 04:49:01;;;;;;;;;;;;;;;20.58;52.73;101251.56;2103880;28;4056;-29
2021/05/24 04:50:03;;;;;;;;;;;;;;;20.58;52.65;101247.91;2105427;28;3903;-29
2021/05/24 04:51:04;;;;;;;;;;;;;;;20.58;52.88;101247.91;2103708;28;3864;-28
2021/05/24 04:52:05;;;;;;;;;;;;;;;20.58;52.64;101251.56;2104906;28;4021;-28
2021/05/24 04:53:07;;;;;;;;;;;;;;;20.58;52.73;101253.59;2104004;28;4045;-28
2021/05/24 04:54:08;;;;;;;;;;;;;;;20.58;52.61;101253.59;2103870;28;4103;-28
2021/05/24 04:55:09;;;;;;;;;;;;;;;20.58;52.61;101254.41;2105042;28;3900;-27
2021/05/24 04:56:10;;;;;;;;;;;;;;;20.57;52.63;101254.78;2104097;28;3998;-28
2021/05/24 04:57:11;;;;;;;;;;;;;;;;;;2105007;28;4056;-28
2021/05/24 04:58:13;;;;;;;;;;;;;;;;;;2104712;28;3857;-28
2021/05/24 04:59:14;;;;;;;;;;;;;;;;;;2103343;28;4058;-28
2021/05/24 05:00:15;;;;;;;;;;;;;;;20.57;52.63;101251.94;2103749;28;3980;-28
2021/05/24 05:01:16;;;;;;;;;;;;;;;20.58;52.47;101254.41;2105267;28;4027;-29
2021/05/24 05:02:17;;;;;;;;;;;;;;;20.58;52.50;101257.25;2104840;28;3844;-36
2021/05/24 05:03:19;;;;;;;;;;;;;;;;;;2105147;28;4009;-28
2021/05/24 05:04:20;;;;;;;;;;;;;;;20.57;52.56;101243.41;2104688;28;3992;-28
2021/05/24 05:05:21;;;;;;;;;;;;;;;20.59;52.51;101256.09;2104608;28;3841;-29
2021/05/24 05:06:22;;;;;;;;;;;;;;;20.58;52.63;101248.72;2103801;28;4009;-28
2021/05/24 05:07:24;;;;;;;;;;;;;;;20.59;52.58;101258.09;2103306;28;3935;-29
2021/05/24 05:08:25;;;;;;;;;;;;;;;20.59;52.53;101260.94;2104805;28;3965;-27
2021/05/24 05:09:26;;;;;;;;;;;;;;;20.59;52.43;101258.09;2103914;28;4023;-27
2021/05/24 05:10:27;;;;;;;;;;;;;;;20.58;52.54;101257.25;2105159;28;3800;-28
2021/05/24 05:11:29;;;;;;;;;;;;;;;20.59;52.59;101263.78;2103466;28;5255;-32
2021/05/24 05:12:30;;;;;;;;;;;;;;;20.59;52.58;101258.09;2104498;28;4764;-30
2021/05/24 05:13:31;;;;;;;;;;;;;;;20.58;52.53;101262.13;2104255;28;4027;-28
2021/05/24 05:14:32;;;;;;;;;;;;;;;20.59;52.60;101261.78;2103925;28;4028;-29
2021/05/24 05:15:33;;;;;;;;;;;;;;;20.60;52.41;101259.78;2105051;28;4115;-35
2021/05/24 05:16:35;;;;;;;;;;;;;;;20.59;52.39;101263.78;2103807;28;4054;-32
2021/05/24 05:17:36;;;;;;;;;;;;;;;20.59;52.52;101263.78;2104243;28;3873;-27
2021/05/24 05:18:38;;;;;;;;;;;;;;;20.59;52.47;101267.47;2103990;28;4048;-28
2021/05/24 05:19:39;;;;;;;;;;;;;;;;;;2104084;28;3880;-29
2021/05/24 05:20:40;;;;;;;;;;;;;;;20.60;52.45;101271.16;2105049;28;4086;-30
2021/05/24 05:21:41;;;;;;;;;;;;;;;20.60;52.41;101265.47;2101585;28;4120;-30
2021/05/24 05:22:43;;;;;;;;;;;;;;;20.59;52.42;101270.31;2105059;28;4049;-31